Time;durP1;ratioP1;P1;durP2;ratioP2;P2;SDS_P1;SDS_P2;PMS_P1;PMS_P2;Temp;Humidity;BMP_temperature;BMP_pressure;BME280_temperature;BME280_humidity;BME280_pressure;Samples;Min_cycle;Max_cycle;Signal;HPM_P1;HPM_P2
2021/06/22 00:00:26;;;;;;;;;;;21.00;57.80;;;;;;486132;245;1050;-44
2021/06/22 00:02:28;;;;;;;;;;;21.00;57.80;;;;;;486182;245;1050;-44
2021/06/22 00:04:29;;;;;;;;;;;21.00;57.80;;;;;;485930;245;1255;-44
2021/06/22 00:06:30;;;;;;;;;;;21.00;57.80;;;;;;485777;245;1081;-44
2021/06/22 00:08:32;;;;;;;;;;;21.00;57.80;;;;;;485766;245;1018;-44
2021/06/22 00:10:33;;;;;;;;;;;21.00;57.80;;;;;;485738;245;2131;-43
2021/06/22 00:12:34;;;;;;;;;;;21.00;57.90;;;;;;486175;245;1209;-44
2021/06/22 00:14:35;;;;;;;;;;;21.00;57.80;;;;;;486167;245;1024;-44
2021/06/22 00:16:37;;;;;;;;;;;21.00;57.80;;;;;;485916;245;1312;-44
2021/06/22 00:18:38;;;;;;;;;;;21.00;57.90;;;;;;485787;245;1115;-43
2021/06/22 00:20:39;;;;;;;;;;;21.00;57.80;;;;;;485940;244;1166;-44
2021/06/22 00:22:41;;;;;;;;;;;21.00;57.90;;;;;;485760;245;1168;-44
2021/06/22 00:24:42;;;;;;;;;;;20.90;57.90;;;;;;486237;245;1072;-43
2021/06/22 00:26:43;;;;;;;;;;;21.00;57.80;;;;;;485814;245;1389;-43
2021/06/22 00:28:45;;;;;;;;;;;21.00;57.90;;;;;;486199;245;1348;-44
2021/06/22 00:30:46;;;;;;;;;;;21.00;57.90;;;;;;485948;245;2198;-43
2021/06/22 00:32:48;;;;;;;;;;;21.00;58.00;;;;;;486423;244;1543;-43
2021/06/22 00:34:49;;;;;;;;;;;21.00;57.90;;;;;;485780;245;1267;-44
2021/06/22 00:36:50;;;;;;;;;;;20.90;57.90;;;;;;486007;245;1171;-44
2021/06/22 00:38:52;;;;;;;;;;;20.90;57.90;;;;;;485777;245;1077;-44
2021/06/22 00:40:53;;;;;;;;;;;20.90;58.00;;;;;;485894;245;1138;-43
2021/06/22 00:42:54;;;;;;;;;;;20.90;58.00;;;;;;485855;245;1276;-44
2021/06/22 00:44:57;;;;;;;;;;;21.00;58.00;;;;;;485752;245;1126;-44
2021/06/22 00:46:58;;;;;;;;;;;20.90;57.90;;;;;;485703;245;1959;-43
2021/06/22 00:48:59;;;;;;;;;;;21.00;57.90;;;;;;485850;245;1055;-44
2021/06/22 00:51:00;;;;;;;;;;;21.00;58.00;;;;;;485852;245;2187;-44
2021/06/22 00:53:02;;;;;;;;;;;20.90;57.90;;;;;;486094;245;1226;-43
2021/06/22 00:55:11;;;;;;;;;;;20.90;58.00;;;;;;486192;245;1099;-44
2021/06/22 00:57:04;;;;;;;;;;;21.00;58.00;;;;;;485338;245;2107;-44
2021/06/22 00:59:06;;;;;;;;;;;21.00;57.90;;;;;;485761;245;1075;-44
2021/06/22 01:01:07;;;;;;;;;;;21.00;58.00;;;;;;485775;244;1361;-43
2021/06/22 01:03:08;;;;;;;;;;;20.90;58.00;;;;;;485787;245;1071;-44
2021/06/22 01:05:09;;;;;;;;;;;20.90;58.00;;;;;;486120;245;1192;-44
2021/06/22 01:07:11;;;;;;;;;;;20.90;58.00;;;;;;486228;245;1139;-44
2021/06/22 01:09:12;;;;;;;;;;;20.90;57.90;;;;;;486015;245;1188;-44
2021/06/22 01:11:13;;;;;;;;;;;20.90;58.00;;;;;;486183;245;2202;-44
2021/06/22 01:13:15;;;;;;;;;;;20.90;58.10;;;;;;485757;245;1107;-44
2021/06/22 01:15:16;;;;;;;;;;;20.90;58.00;;;;;;485672;245;1118;-44
2021/06/22 01:17:17;;;;;;;;;;;20.90;58.00;;;;;;485932;245;1220;-44
2021/06/22 01:19:19;;;;;;;;;;;20.90;58.00;;;;;;485753;245;1040;-44
2021/06/22 01:21:20;;;;;;;;;;;20.90;58.00;;;;;;485785;242;1227;-44
2021/06/22 01:23:21;;;;;;;;;;;20.90;58.00;;;;;;486200;245;1092;-44
2021/06/22 01:25:23;;;;;;;;;;;20.90;58.00;;;;;;485922;245;1298;-44
2021/06/22 01:27:24;;;;;;;;;;;20.90;57.90;;;;;;485796;245;1476;-44
2021/06/22 01:29:25;;;;;;;;;;;20.90;58.00;;;;;;486242;245;1031;-44
2021/06/22 01:31:27;;;;;;;;;;;20.90;58.00;;;;;;485994;245;2191;-44
2021/06/22 01:33:28;;;;;;;;;;;20.90;58.10;;;;;;485757;245;1095;-44
2021/06/22 01:35:29;;;;;;;;;;;20.90;58.00;;;;;;486097;245;1280;-44
2021/06/22 01:37:31;;;;;;;;;;;20.90;58.00;;;;;;486110;245;1298;-44
2021/06/22 01:39:32;;;;;;;;;;;20.90;58.00;;;;;;486046;245;1007;-44
2021/06/22 01:41:33;;;;;;;;;;;20.90;58.00;;;;;;485767;245;1676;-44
2021/06/22 01:43:35;;;;;;;;;;;20.90;58.00;;;;;;486221;245;1099;-44
2021/06/22 01:45:36;;;;;;;;;;;20.90;58.00;;;;;;485873;245;1205;-44
2021/06/22 01:47:37;;;;;;;;;;;20.90;58.00;;;;;;485755;245;1092;-44
2021/06/22 01:49:39;;;;;;;;;;;21.00;58.10;;;;;;486100;245;1049;-44
2021/06/22 01:51:40;;;;;;;;;;;20.90;58.00;;;;;;485846;245;2179;-43
2021/06/22 01:53:41;;;;;;;;;;;20.90;58.00;;;;;;486222;245;1067;-44
2021/06/22 01:55:43;;;;;;;;;;;20.90;58.00;;;;;;485782;245;1045;-44
2021/06/22 01:57:44;;;;;;;;;;;20.90;58.00;;;;;;485968;245;2023;-44
2021/06/22 01:59:45;;;;;;;;;;;20.90;58.10;;;;;;485914;245;1097;-44
2021/06/22 02:01:47;;;;;;;;;;;20.90;58.10;;;;;;486015;245;1092;-44
2021/06/22 02:03:48;;;;;;;;;;;20.90;58.00;;;;;;485795;245;1109;-44
2021/06/22 02:05:49;;;;;;;;;;;21.00;58.00;;;;;;485837;244;1199;-44
2021/06/22 02:07:50;;;;;;;;;;;20.90;58.00;;;;;;485841;244;1462;-43
2021/06/22 02:09:52;;;;;;;;;;;20.90;58.00;;;;;;485957;245;1056;-43
2021/06/22 02:11:53;;;;;;;;;;;20.90;58.10;;;;;;486183;245;2195;-43
2021/06/22 02:13:54;;;;;;;;;;;20.90;58.10;;;;;;486214;245;1249;-44
2021/06/22 02:15:56;;;;;;;;;;;20.90;58.10;;;;;;485792;244;987;-43
2021/06/22 02:17:57;;;;;;;;;;;20.90;58.10;;;;;;485748;245;1440;-44
2021/06/22 02:19:58;;;;;;;;;;;20.90;58.10;;;;;;486189;245;1089;-44
2021/06/22 02:22:00;;;;;;;;;;;20.90;58.10;;;;;;485677;243;1209;-43
2021/06/22 02:24:01;;;;;;;;;;;20.90;58.10;;;;;;486172;245;1105;-44
2021/06/22 02:26:02;;;;;;;;;;;20.90;58.10;;;;;;485823;245;1031;-43
2021/06/22 02:28:04;;;;;;;;;;;20.90;58.20;;;;;;485733;245;1110;-44
2021/06/22 02:30:07;;;;;;;;;;;20.90;58.20;;;;;;486076;245;1057;-44
2021/06/22 02:32:08;;;;;;;;;;;20.90;58.10;;;;;;485939;245;2207;-44
2021/06/22 02:34:09;;;;;;;;;;;20.90;58.10;;;;;;486188;245;1093;-44
2021/06/22 02:36:11;;;;;;;;;;;20.90;58.10;;;;;;486081;245;1140;-43
2021/06/22 02:38:12;;;;;;;;;;;20.90;58.10;;;;;;486206;245;1148;-44
2021/06/22 02:40:13;;;;;;;;;;;20.90;58.10;;;;;;486089;245;1028;-43
2021/06/22 02:42:15;;;;;;;;;;;20.90;58.10;;;;;;485764;245;1166;-44
2021/06/22 02:44:16;;;;;;;;;;;20.90;58.10;;;;;;486177;245;1185;-44
2021/06/22 02:46:17;;;;;;;;;;;20.90;58.10;;;;;;485714;245;1072;-44
2021/06/22 02:48:19;;;;;;;;;;;20.90;58.10;;;;;;485983;245;1216;-43
2021/06/22 02:50:20;;;;;;;;;;;20.90;58.10;;;;;;486216;245;1044;-44
2021/06/22 02:52:21;;;;;;;;;;;20.90;58.10;;;;;;485900;245;2116;-44
2021/06/22 02:54:23;;;;;;;;;;;20.90;58.10;;;;;;485772;245;1116;-43
2021/06/22 02:56:24;;;;;;;;;;;20.90;58.20;;;;;;486207;245;1068;-44
2021/06/22 02:58:25;;;;;;;;;;;20.90;58.10;;;;;;486134;245;1289;-43
2021/06/22 03:00:27;;;;;;;;;;;20.90;58.20;;;;;;486072;245;1024;-44
2021/06/22 03:02:28;;;;;;;;;;;20.90;58.20;;;;;;486141;245;1227;-44
2021/06/22 03:04:29;;;;;;;;;;;20.90;58.10;;;;;;486241;245;1231;-44
2021/06/22 03:06:31;;;;;;;;;;;20.90;58.20;;;;;;485730;245;1220;-44
2021/06/22 03:08:32;;;;;;;;;;;20.90;58.10;;;;;;486262;245;1036;-44
2021/06/22 03:10:33;;;;;;;;;;;20.90;58.10;;;;;;485842;245;1065;-44
2021/06/22 03:12:35;;;;;;;;;;;20.90;58.10;;;;;;485851;245;2116;-43
2021/06/22 03:14:36;;;;;;;;;;;20.90;58.10;;;;;;486153;245;1067;-44
2021/06/22 03:16:37;;;;;;;;;;;20.90;58.10;;;;;;486028;245;1293;-44
2021/06/22 03:18:39;;;;;;;;;;;20.90;58.20;;;;;;485733;245;1064;-44
2021/06/22 03:20:40;;;;;;;;;;;20.90;58.10;;;;;;485999;245;1043;-44
2021/06/22 03:22:41;;;;;;;;;;;20.90;58.10;;;;;;485795;245;1617;-44
2021/06/22 03:24:42;;;;;;;;;;;20.90;58.20;;;;;;486173;245;1156;-43
2021/06/22 03:26:44;;;;;;;;;;;20.90;58.20;;;;;;485931;245;1340;-44
2021/06/22 03:28:45;;;;;;;;;;;20.90;58.10;;;;;;486212;245;1198;-44
2021/06/22 03:30:47;;;;;;;;;;;20.90;58.10;;;;;;486120;245;1064;-44
2021/06/22 03:32:48;;;;;;;;;;;20.90;58.10;;;;;;485935;245;2191;-43
2021/06/22 03:34:49;;;;;;;;;;;20.90;58.20;;;;;;486134;244;1038;-43
2021/06/22 03:36:50;;;;;;;;;;;20.90;58.10;;;;;;485655;245;1338;-44
2021/06/22 03:38:52;;;;;;;;;;;20.90;58.10;;;;;;486192;245;1080;-43
2021/06/22 03:40:53;;;;;;;;;;;20.90;58.20;;;;;;486091;245;1247;-43
2021/06/22 03:42:54;;;;;;;;;;;20.90;58.20;;;;;;485902;245;1254;-44
2021/06/22 03:44:56;;;;;;;;;;;20.90;58.10;;;;;;486013;245;1175;-44
2021/06/22 03:46:57;;;;;;;;;;;20.90;58.10;;;;;;485885;245;1430;-44
2021/06/22 03:48:58;;;;;;;;;;;20.90;58.10;;;;;;485837;245;1064;-44
2021/06/22 03:51:00;;;;;;;;;;;21.00;58.10;;;;;;485814;244;2183;-44
2021/06/22 03:53:01;;;;;;;;;;;20.90;58.10;;;;;;485909;245;1246;-44
2021/06/22 03:55:25;;;;;;;;;;;20.90;58.10;;;;;;485813;245;1069;-44
2021/06/22 03:57:04;;;;;;;;;;;20.90;58.10;;;;;;484140;245;2052;-44
2021/06/22 03:59:05;;;;;;;;;;;20.90;58.10;;;;;;486156;245;1047;-43
2021/06/22 04:01:06;;;;;;;;;;;20.90;58.10;;;;;;486167;244;1327;-44
2021/06/22 04:03:09;;;;;;;;;;;20.90;58.10;;;;;;486001;244;1036;-44
2021/06/22 04:05:09;;;;;;;;;;;20.90;58.10;;;;;;486008;245;2166;-44
2021/06/22 04:07:10;;;;;;;;;;;20.90;58.10;;;;;;485726;245;1136;-44
2021/06/22 04:09:11;;;;;;;;;;;20.90;58.10;;;;;;485849;244;1066;-44
2021/06/22 04:11:13;;;;;;;;;;;20.90;58.10;;;;;;486067;245;2187;-44
2021/06/22 04:13:14;;;;;;;;;;;20.90;58.10;;;;;;486161;245;1074;-44
2021/06/22 04:15:15;;;;;;;;;;;20.90;58.10;;;;;;485852;245;1005;-43
2021/06/22 04:17:17;;;;;;;;;;;20.90;58.10;;;;;;485637;245;1123;-44
2021/06/22 04:19:18;;;;;;;;;;;21.00;58.10;;;;;;485643;245;1059;-44
2021/06/22 04:21:19;;;;;;;;;;;20.90;58.10;;;;;;485631;244;1342;-44
2021/06/22 04:23:21;;;;;;;;;;;20.90;58.10;;;;;;485683;245;1127;-44
2021/06/22 04:25:22;;;;;;;;;;;20.90;58.20;;;;;;485687;245;1045;-44
2021/06/22 04:27:23;;;;;;;;;;;20.90;58.20;;;;;;485671;245;1063;-44
2021/06/22 04:29:25;;;;;;;;;;;20.90;58.20;;;;;;486081;245;1095;-44
2021/06/22 04:31:26;;;;;;;;;;;20.90;58.30;;;;;;485725;245;2187;-44
2021/06/22 04:33:28;;;;;;;;;;;20.90;58.20;;;;;;485694;245;1112;-44
2021/06/22 04:35:30;;;;;;;;;;;20.90;58.20;;;;;;485610;245;1113;-43
2021/06/22 04:37:30;;;;;;;;;;;20.90;58.10;;;;;;485614;245;1866;-44
2021/06/22 04:39:32;;;;;;;;;;;20.90;58.20;;;;;;485637;245;1049;-43
2021/06/22 04:41:33;;;;;;;;;;;20.90;58.20;;;;;;485474;245;1175;-43
2021/06/22 04:43:34;;;;;;;;;;;20.90;58.20;;;;;;485837;245;1145;-44
2021/06/22 04:45:36;;;;;;;;;;;20.90;58.20;;;;;;485684;245;1049;-44
2021/06/22 04:47:37;;;;;;;;;;;20.90;58.20;;;;;;485543;245;1194;-43
2021/06/22 04:49:38;;;;;;;;;;;20.90;58.20;;;;;;485816;245;1038;-43
2021/06/22 04:51:40;;;;;;;;;;;20.90;58.20;;;;;;485699;245;2143;-44
2021/06/22 04:53:41;;;;;;;;;;;20.90;58.20;;;;;;485491;245;1210;-43
2021/06/22 04:55:42;;;;;;;;;;;20.90;58.20;;;;;;485759;245;1073;-43
2021/06/22 04:57:44;;;;;;;;;;;20.90;58.20;;;;;;485439;245;1233;-44
2021/06/22 04:59:45;;;;;;;;;;;20.90;58.20;;;;;;485507;244;1122;-43
2021/06/22 05:01:47;;;;;;;;;;;20.90;58.10;;;;;;485373;245;1326;-43
2021/06/22 05:03:48;;;;;;;;;;;20.90;58.20;;;;;;485369;245;1137;-43
2021/06/22 05:05:50;;;;;;;;;;;20.90;58.20;;;;;;485490;245;1212;-43
2021/06/22 05:07:51;;;;;;;;;;;20.90;58.20;;;;;;485532;245;1207;-44
2021/06/22 05:09:52;;;;;;;;;;;20.90;58.20;;;;;;485670;244;1246;-44
2021/06/22 05:11:54;;;;;;;;;;;20.90;58.20;;;;;;485263;245;2195;-43
2021/06/22 05:13:56;;;;;;;;;;;20.90;58.20;;;;;;485420;245;1200;-43
2021/06/22 05:15:56;;;;;;;;;;;20.90;58.20;;;;;;485471;245;2042;-43
2021/06/22 05:17:58;;;;;;;;;;;20.90;58.20;;;;;;485581;245;1104;-43
2021/06/22 05:19:59;;;;;;;;;;;20.90;58.20;;;;;;485570;245;1075;-44
2021/06/22 05:22:00;;;;;;;;;;;20.90;58.20;;;;;;485341;245;1237;-44
2021/06/22 05:24:02;;;;;;;;;;;20.90;58.20;;;;;;485558;245;1183;-43
2021/06/22 05:26:03;;;;;;;;;;;20.90;58.20;;;;;;485367;245;1361;-44
2021/06/22 05:28:04;;;;;;;;;;;20.90;58.20;;;;;;485536;245;1191;-44
2021/06/22 05:30:06;;;;;;;;;;;20.90;58.30;;;;;;485403;245;1183;-44
2021/06/22 05:32:07;;;;;;;;;;;20.90;58.30;;;;;;485323;245;2168;-44
2021/06/22 05:34:09;;;;;;;;;;;20.90;58.20;;;;;;485660;245;1104;-44
2021/06/22 05:36:10;;;;;;;;;;;20.90;58.20;;;;;;485518;245;1083;-44
2021/06/22 05:38:11;;;;;;;;;;;20.90;58.30;;;;;;485443;244;1607;-44
2021/06/22 05:40:13;;;;;;;;;;;20.90;58.20;;;;;;485314;245;1118;-44
2021/06/22 05:42:14;;;;;;;;;;;20.90;58.30;;;;;;485199;245;1240;-44
2021/06/22 05:44:15;;;;;;;;;;;20.90;58.20;;;;;;485179;245;1107;-44
2021/06/22 05:46:17;;;;;;;;;;;20.90;58.30;;;;;;485159;245;1191;-44
2021/06/22 05:48:18;;;;;;;;;;;20.90;58.20;;;;;;485317;245;1213;-44
2021/06/22 05:50:19;;;;;;;;;;;20.90;58.20;;;;;;485306;245;1098;-44
2021/06/22 05:52:21;;;;;;;;;;;20.90;58.20;;;;;;485452;245;2186;-44
2021/06/22 05:54:22;;;;;;;;;;;21.00;58.20;;;;;;485342;245;1140;-44
2021/06/22 05:56:23;;;;;;;;;;;20.90;58.30;;;;;;485291;245;1230;-44
2021/06/22 05:58:25;;;;;;;;;;;20.90;58.20;;;;;;485216;245;1148;-43
2021/06/22 06:00:26;;;;;;;;;;;20.90;58.30;;;;;;485260;245;1217;-44
2021/06/22 06:02:27;;;;;;;;;;;20.90;58.30;;;;;;485125;245;1288;-44
2021/06/22 06:04:29;;;;;;;;;;;20.80;58.20;;;;;;485381;245;1098;-44
2021/06/22 06:06:30;;;;;;;;;;;20.90;58.20;;;;;;485166;245;1307;-44
2021/06/22 06:08:33;;;;;;;;;;;20.90;58.20;;;;;;484996;245;1133;-44
2021/06/22 06:10:34;;;;;;;;;;;20.90;58.20;;;;;;484829;245;1133;-44
2021/06/22 06:12:35;;;;;;;;;;;20.90;58.20;;;;;;484908;245;2190;-44
2021/06/22 06:14:37;;;;;;;;;;;20.90;58.30;;;;;;484925;245;1107;-44
2021/06/22 06:16:38;;;;;;;;;;;20.90;58.20;;;;;;484890;245;2171;-44
2021/06/22 06:18:39;;;;;;;;;;;20.90;58.20;;;;;;485064;244;1080;-44
2021/06/22 06:20:40;;;;;;;;;;;20.90;58.20;;;;;;485009;245;1345;-44
2021/06/22 06:22:43;;;;;;;;;;;20.90;58.20;;;;;;484961;245;1073;-44
2021/06/22 06:24:43;;;;;;;;;;;20.90;58.20;;;;;;484908;245;2209;-44
2021/06/22 06:26:49;;;;;;;;;;;20.90;58.30;;;;;;484958;245;1068;-44
2021/06/22 06:28:51;;;;;;;;;;;20.90;58.30;;;;;;484893;245;1970;-44
2021/06/22 06:30:50;;;;;;;;;;;20.90;58.30;;;;;;484783;245;1650;-45
2021/06/22 06:32:52;;;;;;;;;;;20.90;58.30;;;;;;485041;245;2152;-44
2021/06/22 06:34:53;;;;;;;;;;;20.90;58.20;;;;;;484738;245;1349;-44
2021/06/22 06:36:54;;;;;;;;;;;20.90;58.30;;;;;;484869;245;1080;-44
2021/06/22 06:38:55;;;;;;;;;;;20.90;58.30;;;;;;484908;245;1307;-44
2021/06/22 06:40:57;;;;;;;;;;;20.90;58.30;;;;;;484841;245;1078;-44
2021/06/22 06:42:58;;;;;;;;;;;20.90;58.20;;;;;;484913;245;1191;-44
2021/06/22 06:44:59;;;;;;;;;;;20.90;58.20;;;;;;484906;245;1102;-44
2021/06/22 06:47:01;;;;;;;;;;;20.90;58.30;;;;;;484879;245;1163;-44
2021/06/22 06:49:02;;;;;;;;;;;20.90;58.30;;;;;;484816;245;1098;-44
2021/06/22 06:51:05;;;;;;;;;;;20.90;58.30;;;;;;484641;245;1177;-44
2021/06/22 06:53:05;;;;;;;;;;;20.90;58.20;;;;;;484318;245;2195;-44
2021/06/22 06:55:24;;;;;;;;;;;20.90;58.20;;;;;;484773;245;1222;-44
2021/06/22 06:57:08;;;;;;;;;;;20.90;58.30;;;;;;483518;245;2007;-44
2021/06/22 06:59:10;;;;;;;;;;;20.90;58.20;;;;;;485156;245;1069;-44
2021/06/22 07:01:11;;;;;;;;;;;20.90;58.30;;;;;;485105;245;1207;-44
2021/06/22 07:03:12;;;;;;;;;;;20.90;58.30;;;;;;485022;245;1308;-44
2021/06/22 07:05:14;;;;;;;;;;;20.90;58.20;;;;;;485039;245;1206;-44
2021/06/22 07:07:15;;;;;;;;;;;20.90;58.20;;;;;;484874;241;1200;-44
2021/06/22 07:09:16;;;;;;;;;;;20.90;58.20;;;;;;485058;245;1200;-44
2021/06/22 07:11:20;;;;;;;;;;;20.90;58.20;;;;;;484984;245;1204;-44
2021/06/22 07:13:19;;;;;;;;;;;20.90;58.20;;;;;;484817;245;2157;-44
2021/06/22 07:15:21;;;;;;;;;;;20.90;58.20;;;;;;484951;245;1140;-44
2021/06/22 07:17:22;;;;;;;;;;;20.90;58.30;;;;;;484971;245;1537;-44
2021/06/22 07:19:23;;;;;;;;;;;20.90;58.30;;;;;;485189;245;1376;-44
2021/06/22 07:21:24;;;;;;;;;;;20.90;58.20;;;;;;484910;245;1150;-44
2021/06/22 07:23:26;;;;;;;;;;;20.90;58.30;;;;;;484973;245;1097;-44
2021/06/22 07:25:27;;;;;;;;;;;20.90;58.20;;;;;;484908;245;1202;-44
2021/06/22 07:27:28;;;;;;;;;;;20.90;58.20;;;;;;484970;245;1224;-44
2021/06/22 07:29:30;;;;;;;;;;;20.90;58.20;;;;;;485139;245;1144;-44
2021/06/22 07:31:31;;;;;;;;;;;20.90;58.20;;;;;;484873;245;1314;-44
2021/06/22 07:33:32;;;;;;;;;;;20.90;58.20;;;;;;484802;245;2194;-44
2021/06/22 07:35:34;;;;;;;;;;;20.90;58.20;;;;;;484811;245;1104;-44
2021/06/22 07:37:35;;;;;;;;;;;20.90;58.20;;;;;;484736;245;1294;-44
2021/06/22 07:39:36;;;;;;;;;;;20.90;58.30;;;;;;484920;245;1110;-44
2021/06/22 07:41:38;;;;;;;;;;;20.90;58.30;;;;;;484762;245;1290;-44
2021/06/22 07:43:39;;;;;;;;;;;20.90;58.30;;;;;;484792;245;1184;-44
2021/06/22 07:45:41;;;;;;;;;;;20.90;58.30;;;;;;484763;245;1079;-44
2021/06/22 07:47:42;;;;;;;;;;;20.90;58.30;;;;;;484789;245;1096;-44
2021/06/22 07:49:43;;;;;;;;;;;20.90;58.20;;;;;;484958;244;1154;-44
2021/06/22 07:51:44;;;;;;;;;;;20.90;58.20;;;;;;484924;245;1120;-44
2021/06/22 07:53:46;;;;;;;;;;;20.90;58.30;;;;;;484980;245;2191;-44
2021/06/22 07:55:47;;;;;;;;;;;20.90;58.20;;;;;;484910;245;1227;-44
2021/06/22 07:57:48;;;;;;;;;;;20.90;58.20;;;;;;484922;245;1137;-44
2021/06/22 07:59:50;;;;;;;;;;;20.90;58.30;;;;;;484934;245;1335;-44
2021/06/22 08:01:51;;;;;;;;;;;20.90;58.20;;;;;;484462;245;1219;-44
2021/06/22 08:03:53;;;;;;;;;;;20.90;58.20;;;;;;484705;245;1238;-44
2021/06/22 08:05:54;;;;;;;;;;;20.90;58.20;;;;;;484756;245;1172;-44
2021/06/22 08:07:55;;;;;;;;;;;20.90;58.20;;;;;;484810;245;1088;-44
2021/06/22 08:09:57;;;;;;;;;;;20.90;58.20;;;;;;484942;245;1225;-44
2021/06/22 08:11:59;;;;;;;;;;;20.90;58.20;;;;;;484829;245;1168;-44
2021/06/22 08:13:59;;;;;;;;;;;20.90;58.20;;;;;;484357;245;2203;-44
2021/06/22 08:16:01;;;;;;;;;;;20.90;58.20;;;;;;484396;245;1228;-44
2021/06/22 08:18:02;;;;;;;;;;;20.90;58.20;;;;;;485469;245;1413;-44
2021/06/22 08:20:04;;;;;;;;;;;20.90;58.20;;;;;;485678;245;918;-44
2021/06/22 08:22:05;;;;;;;;;;;21.00;58.20;;;;;;485629;245;1092;-44
2021/06/22 08:24:07;;;;;;;;;;;20.90;58.10;;;;;;484807;245;1159;-44
2021/06/22 08:26:08;;;;;;;;;;;20.90;58.20;;;;;;484965;245;1310;-44
2021/06/22 08:28:09;;;;;;;;;;;20.90;58.20;;;;;;484990;245;1267;-44
2021/06/22 08:30:11;;;;;;;;;;;20.90;58.20;;;;;;484856;245;1090;-44
2021/06/22 08:32:12;;;;;;;;;;;20.90;58.20;;;;;;485215;245;1166;-44
2021/06/22 08:34:13;;;;;;;;;;;20.90;58.20;;;;;;484807;245;2187;-44
2021/06/22 08:36:15;;;;;;;;;;;20.90;58.20;;;;;;484813;245;1380;-44
2021/06/22 08:38:17;;;;;;;;;;;20.90;58.20;;;;;;484780;245;1221;-44
2021/06/22 08:40:17;;;;;;;;;;;20.90;58.20;;;;;;484493;245;1971;-44
2021/06/22 08:42:19;;;;;;;;;;;20.90;58.20;;;;;;484490;245;1275;-44
2021/06/22 08:44:20;;;;;;;;;;;20.90;58.20;;;;;;484865;245;1088;-44
2021/06/22 08:46:21;;;;;;;;;;;20.90;58.20;;;;;;484780;245;1159;-44
2021/06/22 08:48:23;;;;;;;;;;;20.90;58.20;;;;;;485134;244;1576;-44
2021/06/22 08:50:24;;;;;;;;;;;21.00;58.20;;;;;;484908;245;1327;-44
2021/06/22 08:52:25;;;;;;;;;;;20.90;58.10;;;;;;485106;245;1233;-44
2021/06/22 08:54:27;;;;;;;;;;;20.90;58.20;;;;;;484743;245;2182;-44
2021/06/22 08:56:28;;;;;;;;;;;21.00;58.10;;;;;;484829;245;1284;-44
2021/06/22 08:58:30;;;;;;;;;;;20.90;58.10;;;;;;484770;245;1131;-44
2021/06/22 09:00:31;;;;;;;;;;;20.90;58.10;;;;;;484743;245;1309;-44
2021/06/22 09:02:34;;;;;;;;;;;20.90;58.10;;;;;;484571;245;1257;-44
2021/06/22 09:04:34;;;;;;;;;;;20.90;58.20;;;;;;484834;245;1970;-44
2021/06/22 09:06:35;;;;;;;;;;;20.90;58.20;;;;;;484839;245;1479;-44
2021/06/22 09:08:36;;;;;;;;;;;20.90;58.30;;;;;;484909;245;1225;-45
2021/06/22 09:10:38;;;;;;;;;;;20.90;58.20;;;;;;484807;245;1357;-44
2021/06/22 09:12:39;;;;;;;;;;;20.90;58.20;;;;;;484843;245;1121;-44
2021/06/22 09:14:40;;;;;;;;;;;20.90;58.20;;;;;;484756;245;2210;-44
2021/06/22 09:16:41;;;;;;;;;;;20.90;58.20;;;;;;485083;245;1224;-44
2021/06/22 09:18:44;;;;;;;;;;;20.90;58.20;;;;;;485136;244;1160;-44
2021/06/22 09:20:44;;;;;;;;;;;20.90;58.20;;;;;;484792;245;2201;-44
2021/06/22 09:22:46;;;;;;;;;;;20.90;58.20;;;;;;484776;245;1188;-44
2021/06/22 09:24:47;;;;;;;;;;;20.90;58.20;;;;;;484770;245;1098;-44
2021/06/22 09:26:48;;;;;;;;;;;20.90;58.20;;;;;;484687;245;1302;-44
2021/06/22 09:28:50;;;;;;;;;;;20.90;58.10;;;;;;484796;245;1179;-44
2021/06/22 09:30:51;;;;;;;;;;;20.90;58.20;;;;;;484926;245;1149;-43
2021/06/22 09:32:52;;;;;;;;;;;20.90;58.30;;;;;;484936;245;1112;-44
2021/06/22 09:34:54;;;;;;;;;;;20.90;58.30;;;;;;484751;245;2131;-44
2021/06/22 09:36:55;;;;;;;;;;;20.90;58.20;;;;;;484670;245;1322;-44
2021/06/22 09:38:56;;;;;;;;;;;20.90;58.20;;;;;;484775;245;1150;-44
2021/06/22 09:40:58;;;;;;;;;;;20.90;58.20;;;;;;484841;245;1206;-44
2021/06/22 09:42:59;;;;;;;;;;;20.90;58.20;;;;;;484737;245;1186;-44
2021/06/22 09:45:00;;;;;;;;;;;20.90;58.20;;;;;;484752;245;1297;-44
2021/06/22 09:47:02;;;;;;;;;;;20.90;58.20;;;;;;484739;245;1118;-44
2021/06/22 09:49:03;;;;;;;;;;;20.90;58.20;;;;;;484644;245;1094;-44
2021/06/22 09:51:04;;;;;;;;;;;20.90;58.20;;;;;;484732;245;1244;-44
2021/06/22 09:53:06;;;;;;;;;;;20.90;58.20;;;;;;484817;245;2191;-44
2021/06/22 09:55:07;;;;;;;;;;;20.90;58.20;;;;;;484833;245;1337;-44
2021/06/22 09:57:08;;;;;;;;;;;20.90;58.20;;;;;;484870;245;1189;-44
2021/06/22 09:59:10;;;;;;;;;;;20.90;58.20;;;;;;485023;245;1160;-44
2021/06/22 10:01:11;;;;;;;;;;;20.90;58.20;;;;;;484789;245;1275;-44
2021/06/22 10:03:12;;;;;;;;;;;20.90;58.20;;;;;;484781;245;1247;-44
2021/06/22 10:05:14;;;;;;;;;;;20.90;58.20;;;;;;484725;245;1074;-44
2021/06/22 10:07:15;;;;;;;;;;;20.90;58.20;;;;;;484678;245;1199;-44
2021/06/22 10:09:16;;;;;;;;;;;20.90;58.20;;;;;;484709;245;1127;-44
2021/06/22 10:11:18;;;;;;;;;;;20.90;58.30;;;;;;484649;245;1287;-44
2021/06/22 10:13:19;;;;;;;;;;;20.90;58.30;;;;;;484723;245;2195;-44
2021/06/22 10:15:22;;;;;;;;;;;20.90;58.30;;;;;;484758;245;1079;-44
2021/06/22 10:17:22;;;;;;;;;;;20.90;58.30;;;;;;484717;245;1791;-44
2021/06/22 10:19:24;;;;;;;;;;;20.90;58.40;;;;;;484563;245;1164;-44
2021/06/22 10:21:26;;;;;;;;;;;20.90;58.40;;;;;;484519;245;1343;-44
2021/06/22 10:23:27;;;;;;;;;;;20.80;58.40;;;;;;484570;245;1113;-44
2021/06/22 10:25:28;;;;;;;;;;;20.80;58.50;;;;;;484141;245;1121;-44
2021/06/22 10:27:29;;;;;;;;;;;20.80;58.50;;;;;;484302;245;1200;-44
2021/06/22 10:29:31;;;;;;;;;;;20.80;58.50;;;;;;484285;245;1167;-44
2021/06/22 10:31:32;;;;;;;;;;;20.80;58.50;;;;;;484342;245;1132;-44
2021/06/22 10:33:34;;;;;;;;;;;20.80;58.60;;;;;;484363;245;2202;-44
2021/06/22 10:35:35;;;;;;;;;;;20.80;58.50;;;;;;484552;245;1224;-44
2021/06/22 10:37:36;;;;;;;;;;;20.80;58.50;;;;;;483895;245;1212;-44
2021/06/22 10:39:38;;;;;;;;;;;20.80;58.60;;;;;;484808;245;1173;-44
2021/06/22 10:41:41;;;;;;;;;;;20.80;58.70;;;;;;484699;245;1296;-44
2021/06/22 10:43:41;;;;;;;;;;;20.80;58.70;;;;;;485130;245;2200;-44
2021/06/22 10:45:42;;;;;;;;;;;20.80;58.60;;;;;;485069;245;1062;-44
2021/06/22 10:47:44;;;;;;;;;;;20.80;58.60;;;;;;484828;245;1106;-44
2021/06/22 10:49:45;;;;;;;;;;;20.80;58.70;;;;;;484872;244;1202;-44
2021/06/22 10:51:47;;;;;;;;;;;20.70;58.70;;;;;;484812;245;1216;-44
2021/06/22 10:53:48;;;;;;;;;;;20.80;58.70;;;;;;484747;245;2190;-44
2021/06/22 10:55:49;;;;;;;;;;;20.80;58.70;;;;;;484663;245;1099;-44
2021/06/22 10:57:50;;;;;;;;;;;20.80;58.70;;;;;;484633;245;1246;-44
2021/06/22 10:59:52;;;;;;;;;;;20.70;58.70;;;;;;484928;245;1111;-44
2021/06/22 11:01:53;;;;;;;;;;;20.80;58.70;;;;;;484628;245;1263;-44
2021/06/22 11:03:54;;;;;;;;;;;20.80;58.70;;;;;;484498;245;1112;-44
2021/06/22 11:05:56;;;;;;;;;;;20.80;58.70;;;;;;484389;245;1228;-44
2021/06/22 11:07:57;;;;;;;;;;;20.70;58.70;;;;;;484523;245;1212;-44
2021/06/22 11:09:58;;;;;;;;;;;20.70;58.70;;;;;;484532;245;1110;-44
2021/06/22 11:12:00;;;;;;;;;;;20.80;58.70;;;;;;484613;245;1146;-44
2021/06/22 11:14:02;;;;;;;;;;;20.80;58.70;;;;;;484981;244;2187;-44
2021/06/22 11:16:05;;;;;;;;;;;20.80;58.70;;;;;;485416;245;2222;-44
2021/06/22 11:18:06;;;;;;;;;;;20.70;58.70;;;;;;485188;245;2151;-44
2021/06/22 11:20:05;;;;;;;;;;;20.80;58.70;;;;;;483918;245;1972;-44
2021/06/22 11:22:06;;;;;;;;;;;20.80;58.70;;;;;;484588;245;1352;-44
2021/06/22 11:24:08;;;;;;;;;;;20.80;58.70;;;;;;484591;245;1108;-44
2021/06/22 11:26:09;;;;;;;;;;;20.80;58.70;;;;;;484811;245;2362;-44
2021/06/22 11:28:10;;;;;;;;;;;20.80;58.70;;;;;;485141;245;1232;-44
2021/06/22 11:30:12;;;;;;;;;;;20.80;58.70;;;;;;485660;245;1227;-44
2021/06/22 11:32:13;;;;;;;;;;;20.80;58.70;;;;;;485237;245;1279;-44
2021/06/22 11:34:14;;;;;;;;;;;20.80;58.70;;;;;;485665;245;2194;-44
2021/06/22 11:36:16;;;;;;;;;;;20.70;58.70;;;;;;485669;245;1177;-44
2021/06/22 11:38:17;;;;;;;;;;;20.80;58.70;;;;;;485672;245;894;-44
2021/06/22 11:40:21;;;;;;;;;;;20.70;58.70;;;;;;485029;245;1115;-44
2021/06/22 11:42:22;;;;;;;;;;;20.80;58.70;;;;;;484747;245;1192;-44
2021/06/22 11:44:23;;;;;;;;;;;20.80;58.70;;;;;;484763;245;1081;-44
2021/06/22 11:46:25;;;;;;;;;;;20.80;58.70;;;;;;484783;245;1282;-44
2021/06/22 11:48:26;;;;;;;;;;;20.70;58.70;;;;;;485695;245;984;-44
2021/06/22 11:50:27;;;;;;;;;;;20.70;58.70;;;;;;485678;245;863;-44
2021/06/22 11:52:29;;;;;;;;;;;20.70;58.70;;;;;;485614;245;1055;-44
2021/06/22 11:54:30;;;;;;;;;;;20.70;58.70;;;;;;485465;244;2203;-44
2021/06/22 11:56:31;;;;;;;;;;;20.80;58.70;;;;;;485528;245;1168;-44